• Join FlightAware (Why Join?)
  • Login
  • US Flag 
09:41PM EDT


 

Airport Tracker/Info


-or-


 

Live Flight TrackerFlight Track Log ✈ UPS1301 ✈ 26-Sep-2013 ✈ KATL - KSDF

Flight Track Log - Related Links

Times and Time Zones

All times are in EDT time to prevent confusion due to time zone crossing. See the UPS1301 flight status page for this flight to view local times or setup timezone preferences in your user account.

Time Position Orientation Groundspeed Altitude Reporting Facility
EDT Latitude Longitude Course Direction KTS MPH feet Rate Location/Type
11:08PM 33.6470 -84.4260 90° East 139 160 900  Level FlightAware
11:09PM 33.6470 -84.4070 90° East 158 182 1,800 2,160 Climbing FlightAware
11:09PM 33.6490 -84.3870 83° East 157 181 2,700 1,500 Climbing FlightAware
11:10PM 33.6560 -84.3680 66° East 192 221 2,900 1,500 Climbing FlightAware
11:10PM 33.6640 -84.3490 63° Northeast 211 243 3,600 2,400 Climbing FlightAware
11:10PM 33.6690 -84.3350 67° East 214 246 4,200 2,820 Climbing FlightAware
11:10PM 33.6780 -84.3070 69° East 232 267 5,300 2,400 Climbing FlightAware
11:11PM 33.6900 -84.2720 68° East 262 302 6,200 2,700 Climbing FlightAware
11:11PM 33.6980 -84.2460 70° East 263 303 7,400 3,360 Climbing FlightAware
11:12PM 33.7090 -84.2110 69° East 270 311 8,700 3,000 Climbing FlightAware
11:12PM 33.7150 -84.1950 66° East 275 316 9,200 960 Climbing FlightAware
11:12PM 33.7330 -84.1600 58° Northeast 275 316 9,400 180 Climbing FlightAware
11:13PM 33.7470 -84.1330 58° Northeast 275 316 9,400  Level FlightAware
11:13PM 33.7620 -84.1040 58° Northeast 275 316 9,400  Level FlightAware
11:14PM 33.7740 -84.0820 57° Northeast 275 316 9,400  Level FlightAware
11:14PM 33.7850 -84.0600 59° Northeast 275 316 9,400 3,840 Level FlightAware
11:15PM 33.9830 -84.3370 311° West 374 430 16,400 4,080 Climbing FlightAware
11:16PM 34.0410 -84.3870 324° Northwest 378 435 18,000 2,520 Climbing FlightAware
11:16PM 34.0880 -84.4270 325° Northwest 379 436 19,300 2,220 Climbing FlightAware
11:17PM 34.1418 -84.4729 325° Northwest 386 444 20,600 1,980 Climbing FlightAware ADS-B
11:18PM 34.1890 -84.5131 325° Northwest 392 451 21,600 1,860 Climbing FlightAware ADS-B
11:18PM 34.2367 -84.5539 325° Northwest 396 456 22,600 1,860 Climbing FlightAware ADS-B
11:18PM 34.2566 -84.5708 325° Northwest 397 457 23,000 1,860 Climbing FlightAware ADS-B
11:19PM 34.2824 -84.5879 331° Northwest 395 455 23,500 1,980 Climbing FlightAware ADS-B
11:19PM 34.2959 -84.5946 338° Northwest 395 455 23,800 1,800 Climbing FlightAware ADS-B
11:19PM 34.3266 -84.6051 344° North 397 457 24,300 1,620 Climbing FlightAware ADS-B
11:20PM 34.3819 -84.6188 348° North 403 464 25,100 1,560 Climbing FlightAware ADS-B
11:20PM 34.4444 -84.6335 349° North 409 471 26,000 1,560 Climbing FlightAware ADS-B
11:21PM 34.5027 -84.6477 349° North 414 476 26,800 1,560 Climbing FlightAware ADS-B
11:21PM 34.5602 -84.6619 349° North 418 481 27,600 1,440 Climbing FlightAware ADS-B
11:22PM 34.6190 -84.6764 349° North 422 486 28,300 1,440 Climbing FlightAware ADS-B
11:22PM 34.6775 -84.6909 348° North 426 490 29,100 1,620 Climbing FlightAware ADS-B
11:23PM 34.7372 -84.7058 348° North 423 487 30,000 1,800 Climbing FlightAware ADS-B
11:23PM 34.8109 -84.7240 349° North 420 483 31,200 1,620 Climbing FlightAware ADS-B
11:24PM 34.8691 -84.7384 349° North 419 482 31,900 780 Climbing FlightAware ADS-B
11:24PM 34.9387 -84.7556 349° North 418 481 32,100 60 Climbing FlightAware ADS-B
11:25PM 35.0201 -84.7757 349° North 417 480 32,000 -120 Descending FlightAware ADS-B
11:26PM 35.0899 -84.7930 349° North 416 479 32,000  Level FlightAware ADS-B
11:26PM 35.1466 -84.8071 349° North 417 480 32,000 60 Level FlightAware ADS-B
11:27PM 35.2036 -84.8215 348° North 418 481 32,100 60 Climbing FlightAware ADS-B
11:27PM 35.2607 -84.8364 348° North 418 481 32,100  Level FlightAware ADS-B
11:28PM 35.3185 -84.8515 348° North 418 481 32,100 -120 Level FlightAware ADS-B
11:28PM 35.3753 -84.8663 348° North 418 481 32,000  Descending FlightAware ADS-B
11:29PM 35.4321 -84.8810 348° North 418 481 32,100 60 Climbing FlightAware ADS-B
11:29PM 35.4888 -84.8956 348° North 418 481 32,100  Level FlightAware ADS-B
11:30PM 35.5479 -84.9109 348° North 418 481 32,100  Level FlightAware ADS-B
11:30PM 35.6058 -84.9258 348° North 418 481 32,100 -120 Level FlightAware ADS-B
11:31PM 35.6620 -84.9433 346° North 418 481 32,000 -600 Descending FlightAware ADS-B
11:32PM 35.7446 -84.9696 346° North 417 480 31,400 -900 Descending FlightAware ADS-B
11:32PM 35.8025 -84.9857 347° North 416 479 30,900 -1,080 Descending FlightAware ADS-B
11:33PM 35.8693 -85.0017 349° North 415 478 30,200 -840 Descending FlightAware ADS-B
11:33PM 35.9262 -85.0147 350° North 413 475 30,000 -120 Descending FlightAware ADS-B
11:34PM 35.9825 -85.0277 349° North 413 475 30,100 60 Climbing FlightAware ADS-B
11:34PM 36.0500 -85.0433 349° North 413 475 30,100  Level FlightAware ADS-B
11:35PM 36.1064 -85.0565 349° North 412 474 30,100  Level FlightAware ADS-B
11:35PM 36.1634 -85.0698 349° North 412 474 30,100  Level FlightAware ADS-B
11:36PM 36.2376 -85.0872 349° North 412 474 30,100  Level FlightAware ADS-B
11:36PM 36.2949 -85.1006 349° North 412 474 30,100  Level FlightAware ADS-B
11:37PM 36.3511 -85.1137 349° North 412 474 30,100 -240 Level FlightAware ADS-B
11:38PM 36.4184 -85.1296 349° North 412 474 29,900 -780 Descending FlightAware ADS-B
11:38PM 36.4932 -85.1472 349° North 405 466 29,100 -1,260 Descending FlightAware ADS-B
11:39PM 36.5542 -85.1613 349° North 404 465 28,400 -1,320 Descending FlightAware ADS-B
11:39PM 36.5712 -85.1635 354° North 402 463 28,200 -1,320 Descending FlightAware ADS-B
11:39PM 36.5898 -85.1640 359° North 401 461 28,000 -1,020 Descending FlightAware ADS-B
11:39PM 36.6035 -85.1632 North 401 461 27,900 -1,080 Descending FlightAware ADS-B
11:40PM 36.6316 -85.1593 North 402 463 27,600 -1,140 Descending FlightAware ADS-B
11:40PM 36.6938 -85.1468 North 399 459 27,000 -1,080 Descending FlightAware ADS-B
11:41PM 36.7710 -85.1310 North 422 486 26,300 -960 Descending FlightAware
11:41PM 36.7893 -85.1273 North 423 487 26,200 -900 Descending FlightAware ADS-B
11:41PM 36.8493 -85.1153 North 423 487 25,700 -1,020 Descending FlightAware ADS-B
11:42PM 36.9072 -85.1038 North 420 483 25,200 -1,260 Descending FlightAware ADS-B
11:43PM 37.0095 -85.0834 North 413 475 24,000 -1,500 Descending FlightAware ADS-B
11:44PM 37.1170 -85.0620 North 401 461 22,400 -2,220 Descending FlightAware
11:44PM 37.1690 -85.0520 North 407 468 20,900 -2,700 Descending FlightAware
11:45PM 37.2300 -85.0390 10° North 394 453 19,600 -2,460 Descending FlightAware
11:45PM 37.2870 -85.0280 North 389 448 18,200 -2,640 Descending FlightAware
11:46PM 37.3620 -85.0130 North 381 438 16,400 -2,400 Descending FlightAware
11:47PM 37.4160 -85.0020 North 371 427 15,200 -2,880 Descending FlightAware
11:47PM 37.4820 -84.9890 North 359 413 13,000 -3,420 Descending FlightAware
11:48PM 37.5260 -84.9800 North 348 400 11,600 -2,220 Descending FlightAware
11:48PM 37.5900 -84.9670 North 308 354 10,500 -1,320 Descending FlightAware
11:49PM 37.6320 -84.9600 North 285 328 10,000 -660 Descending FlightAware
11:49PM 37.6630 -84.9700 346° North 284 327 9,900 -180 Descending FlightAware
11:50PM 37.6740 -84.9810 322° Northwest 288 331 9,900  Level FlightAware
11:50PM 37.6890 -85.0020 312° West 291 335 9,900  Level FlightAware
11:50PM 37.7040 -85.0230 312° West 291 335 9,900  Level FlightAware
11:50PM 37.7220 -85.0480 312° West 290 334 9,900  Level FlightAware
11:51PM 37.7400 -85.0730 312° West 289 333 9,900 -420 Level FlightAware
11:51PM 37.7500 -85.0870 312° West 287 330 9,700 -1,500 Descending FlightAware
11:51PM 37.7680 -85.1230 302° West 290 334 9,000 -1,680 Descending FlightAware
11:52PM 37.7740 -85.1410 293° West 291 335 8,700 -1,500 Descending FlightAware
11:52PM 37.7860 -85.1720 296° West 287 330 8,200 -1,380 Descending FlightAware
11:52PM 37.8000 -85.2080 296° West 284 327 7,700 -1,380 Descending FlightAware
11:53PM 37.8120 -85.2380 297° West 280 322 7,200 -1,560 Descending FlightAware
11:53PM 37.8230 -85.2660 296° West 279 321 6,700 -1,500 Descending FlightAware
11:53PM 37.8350 -85.2980 295° West 278 320 6,200 -1,500 Descending FlightAware
11:54PM 37.8490 -85.3340 296° West 278 320 5,600 -1,680 Descending FlightAware
11:54PM 37.8600 -85.3620 296° West 283 326 5,000 -1,800 Descending FlightAware
11:54PM 37.8710 -85.3930 294° West 285 328 4,400 -1,740 Descending FlightAware
11:55PM 37.8780 -85.4100 298° West 284 327 4,100 -1,020 Descending FlightAware
11:55PM 37.8910 -85.4450 295° West 278 320 3,800 -1,080 Descending FlightAware
11:55PM 37.9070 -85.4870 296° West 273 314 3,200 -1,140 Descending FlightAware
11:56PM 37.9170 -85.5140 295° West 270 311 2,900 -480 Descending FlightAware
11:56PM 37.9290 -85.5450 296° West 271 312 2,900  Level FlightAware
11:57PM 37.9470 -85.5940 295° West 272 313 2,900 -420 Level FlightAware
11:58PM 37.9950 -85.6580 314° West 212 244 2,300 -600 Descending FlightAware
11:58PM 38.0030 -85.6660 322° Northwest 198 228 2,300  Level FlightAware
11:58PM 38.0230 -85.6760 339° North 173 199 2,300  Level FlightAware
11:59PM 38.0430 -85.6820 347° North 170 196 2,300  Level FlightAware
11:59PM 38.0640 -85.6900 343° North 171 197 2,300 -180 Level FlightAware
11:59PM 38.0770 -85.6940 346° North 170 196 2,200 -720 Descending FlightAware
12:00AM 38.0960 -85.7000 346° North 151 174 1,800 -960 Descending FlightAware
12:00AM 38.1080 -85.7040 345° North 135 155 1,500 -780 Descending FlightAware
12:01AM 38.1210 -85.7090 343° North 132 152 1,300 -600 Descending FlightAware
12:01AM 38.1320 -85.7130 344° North 129 148 1,100 -720 Descending FlightAware
12:01AM 38.1410 -85.7160 345° North 126 145 900 -720 Descending FlightAware
12:01AM 38.1530 -85.7200 345° North 133 153 700 -720 Descending FlightAware
12:02AM 38.1610 -85.7220 349° North 130 150 500 -900 Descending FlightAware
12:02AM 38.1740 -85.7270 343° North 98 113 -1,200 Descending FlightAware